sensor_id;sensor_type;location;lat;lon;timestamp;temperature;humidity
14471;DHT22;7321;50.802;4.336;2024-01-25T00:01:20;11.00;99.90
14471;DHT22;7321;50.802;4.336;2024-01-25T00:03:46;11.10;99.90
14471;DHT22;7321;50.802;4.336;2024-01-25T00:06:12;11.00;99.90
14471;DHT22;7321;50.802;4.336;2024-01-25T00:08:38;11.10;99.90
14471;DHT22;7321;50.802;4.336;2024-01-25T00:11:04;10.90;99.90
14471;DHT22;7321;50.802;4.336;2024-01-25T00:13:30;10.90;99.90
14471;DHT22;7321;50.802;4.336;2024-01-25T00:15:56;11.10;99.90
14471;DHT22;7321;50.802;4.336;2024-01-25T00:18:22;11.10;99.90
14471;DHT22;7321;50.802;4.336;2024-01-25T00:20:48;11.00;99.90
14471;DHT22;7321;50.802;4.336;2024-01-25T00:23:13;10.90;99.90
14471;DHT22;7321;50.802;4.336;2024-01-25T00:25:39;10.90;99.90
14471;DHT22;7321;50.802;4.336;2024-01-25T00:28:05;10.70;99.90
14471;DHT22;7321;50.802;4.336;2024-01-25T00:30:31;10.60;99.90
14471;DHT22;7321;50.802;4.336;2024-01-25T00:32:57;10.50;99.90
14471;DHT22;7321;50.802;4.336;2024-01-25T00:35:24;10.50;99.90
14471;DHT22;7321;50.802;4.336;2024-01-25T00:37:50;10.50;99.90
14471;DHT22;7321;50.802;4.336;2024-01-25T00:40:17;10.50;99.90
14471;DHT22;7321;50.802;4.336;2024-01-25T00:42:45;10.50;99.90
14471;DHT22;7321;50.802;4.336;2024-01-25T00:45:22;10.50;99.90
14471;DHT22;7321;50.802;4.336;2024-01-25T00:47:49;10.50;99.90
14471;DHT22;7321;50.802;4.336;2024-01-25T00:50:15;10.40;99.90
14471;DHT22;7321;50.802;4.336;2024-01-25T00:52:52;10.30;99.90
14471;DHT22;7321;50.802;4.336;2024-01-25T00:55:19;10.40;99.90
14471;DHT22;7321;50.802;4.336;2024-01-25T00:57:45;10.50;99.90
14471;DHT22;7321;50.802;4.336;2024-01-25T01:00:11;10.50;99.90
14471;DHT22;7321;50.802;4.336;2024-01-25T01:02:43;10.50;99.90
14471;DHT22;7321;50.802;4.336;2024-01-25T01:05:10;10.50;99.90
14471;DHT22;7321;50.802;4.336;2024-01-25T01:07:36;10.60;99.90
14471;DHT22;7321;50.802;4.336;2024-01-25T01:10:02;10.60;99.90
14471;DHT22;7321;50.802;4.336;2024-01-25T01:12:29;10.70;99.90
14471;DHT22;7321;50.802;4.336;2024-01-25T01:14:55;10.50;99.90
14471;DHT22;7321;50.802;4.336;2024-01-25T01:17:21;10.40;99.90
14471;DHT22;7321;50.802;4.336;2024-01-25T01:19:47;10.20;99.90
14471;DHT22;7321;50.802;4.336;2024-01-25T01:22:13;10.20;99.90
14471;DHT22;7321;50.802;4.336;2024-01-25T01:24:39;9.90;99.90
14471;DHT22;7321;50.802;4.336;2024-01-25T01:27:04;9.90;99.90
14471;DHT22;7321;50.802;4.336;2024-01-25T01:29:30;10.00;99.90
14471;DHT22;7321;50.802;4.336;2024-01-25T01:31:56;10.00;99.90
14471;DHT22;7321;50.802;4.336;2024-01-25T01:34:22;10.10;99.90
14471;DHT22;7321;50.802;4.336;2024-01-25T01:36:48;10.10;99.90
14471;DHT22;7321;50.802;4.336;2024-01-25T01:39:13;10.10;99.90
14471;DHT22;7321;50.802;4.336;2024-01-25T01:41:39;10.10;99.90
14471;DHT22;7321;50.802;4.336;2024-01-25T01:44:05;10.10;99.90
14471;DHT22;7321;50.802;4.336;2024-01-25T01:49:05;9.80;99.90
14471;DHT22;7321;50.802;4.336;2024-01-25T01:51:32;10.10;99.90
14471;DHT22;7321;50.802;4.336;2024-01-25T01:54:00;10.00;99.90
14471;DHT22;7321;50.802;4.336;2024-01-25T01:56:28;10.00;99.90
14471;DHT22;7321;50.802;4.336;2024-01-25T01:59:04;10.00;99.90
14471;DHT22;7321;50.802;4.336;2024-01-25T02:01:31;10.10;99.90
14471;DHT22;7321;50.802;4.336;2024-01-25T02:03:57;10.00;99.90
14471;DHT22;7321;50.802;4.336;2024-01-25T02:06:26;9.90;99.90
14471;DHT22;7321;50.802;4.336;2024-01-25T02:08:52;9.80;99.90
14471;DHT22;7321;50.802;4.336;2024-01-25T02:11:24;9.80;99.90
14471;DHT22;7321;50.802;4.336;2024-01-25T02:13:50;9.90;99.90
14471;DHT22;7321;50.802;4.336;2024-01-25T02:16:16;9.90;99.90
14471;DHT22;7321;50.802;4.336;2024-01-25T02:18:43;9.90;99.90
14471;DHT22;7321;50.802;4.336;2024-01-25T02:21:09;9.90;99.90
14471;DHT22;7321;50.802;4.336;2024-01-25T02:23:35;9.90;99.90
14471;DHT22;7321;50.802;4.336;2024-01-25T02:26:01;9.90;99.90
14471;DHT22;7321;50.802;4.336;2024-01-25T02:28:27;9.90;99.90
14471;DHT22;7321;50.802;4.336;2024-01-25T02:30:53;9.90;99.90
14471;DHT22;7321;50.802;4.336;2024-01-25T02:33:19;9.90;99.90
14471;DHT22;7321;50.802;4.336;2024-01-25T02:35:45;9.90;99.90
14471;DHT22;7321;50.802;4.336;2024-01-25T02:38:10;9.80;99.90
14471;DHT22;7321;50.802;4.336;2024-01-25T02:40:36;9.80;99.90
14471;DHT22;7321;50.802;4.336;2024-01-25T02:43:02;9.70;99.90
14471;DHT22;7321;50.802;4.336;2024-01-25T02:45:28;9.70;99.90
14471;DHT22;7321;50.802;4.336;2024-01-25T02:47:54;9.70;99.90
14471;DHT22;7321;50.802;4.336;2024-01-25T02:50:20;9.70;99.90
14471;DHT22;7321;50.802;4.336;2024-01-25T02:52:45;9.60;99.90
14471;DHT22;7321;50.802;4.336;2024-01-25T02:55:11;9.60;99.90
14471;DHT22;7321;50.802;4.336;2024-01-25T02:57:37;9.60;99.90
14471;DHT22;7321;50.802;4.336;2024-01-25T03:00:03;9.50;99.90
14471;DHT22;7321;50.802;4.336;2024-01-25T03:02:30;9.50;99.90
14471;DHT22;7321;50.802;4.336;2024-01-25T03:04:57;9.50;99.90
14471;DHT22;7321;50.802;4.336;2024-01-25T03:07:22;9.40;99.90
14471;DHT22;7321;50.802;4.336;2024-01-25T03:09:48;9.10;99.90
14471;DHT22;7321;50.802;4.336;2024-01-25T03:12:14;9.30;99.90
14471;DHT22;7321;50.802;4.336;2024-01-25T03:14:40;9.20;99.90
14471;DHT22;7321;50.802;4.336;2024-01-25T03:17:05;9.50;99.90
14471;DHT22;7321;50.802;4.336;2024-01-25T03:19:31;9.50;99.90
14471;DHT22;7321;50.802;4.336;2024-01-25T03:21:57;9.40;99.90
14471;DHT22;7321;50.802;4.336;2024-01-25T03:24:24;9.30;99.90
14471;DHT22;7321;50.802;4.336;2024-01-25T03:26:50;9.30;99.90
14471;DHT22;7321;50.802;4.336;2024-01-25T03:29:16;9.20;99.90
14471;DHT22;7321;50.802;4.336;2024-01-25T03:31:42;9.20;99.90
14471;DHT22;7321;50.802;4.336;2024-01-25T03:34:07;9.30;99.90
14471;DHT22;7321;50.802;4.336;2024-01-25T03:36:33;9.30;99.90
14471;DHT22;7321;50.802;4.336;2024-01-25T03:39:00;9.40;99.90
14471;DHT22;7321;50.802;4.336;2024-01-25T03:41:25;9.20;99.90
14471;DHT22;7321;50.802;4.336;2024-01-25T03:43:51;9.30;99.90
14471;DHT22;7321;50.802;4.336;2024-01-25T03:46:17;9.20;99.90
14471;DHT22;7321;50.802;4.336;2024-01-25T03:48:43;9.20;99.90
14471;DHT22;7321;50.802;4.336;2024-01-25T03:51:09;9.20;99.90
14471;DHT22;7321;50.802;4.336;2024-01-25T03:53:35;9.10;99.90
14471;DHT22;7321;50.802;4.336;2024-01-25T03:56:01;9.20;99.90
14471;DHT22;7321;50.802;4.336;2024-01-25T03:58:26;9.10;99.90
14471;DHT22;7321;50.802;4.336;2024-01-25T04:00:52;9.10;99.90
14471;DHT22;7321;50.802;4.336;2024-01-25T04:03:18;9.00;99.90
14471;DHT22;7321;50.802;4.336;2024-01-25T04:05:44;9.00;99.90
14471;DHT22;7321;50.802;4.336;2024-01-25T04:08:10;9.00;99.90
14471;DHT22;7321;50.802;4.336;2024-01-25T04:10:36;9.10;99.90
14471;DHT22;7321;50.802;4.336;2024-01-25T04:13:02;9.00;99.90
14471;DHT22;7321;50.802;4.336;2024-01-25T04:15:30;8.90;99.90
14471;DHT22;7321;50.802;4.336;2024-01-25T04:17:56;8.90;99.90
14471;DHT22;7321;50.802;4.336;2024-01-25T04:20:22;8.90;99.90
14471;DHT22;7321;50.802;4.336;2024-01-25T04:22:48;8.90;99.90
14471;DHT22;7321;50.802;4.336;2024-01-25T04:25:14;8.90;99.90
14471;DHT22;7321;50.802;4.336;2024-01-25T04:27:41;8.80;99.90
14471;DHT22;7321;50.802;4.336;2024-01-25T04:30:07;8.50;99.90
14471;DHT22;7321;50.802;4.336;2024-01-25T04:32:33;8.50;99.90
14471;DHT22;7321;50.802;4.336;2024-01-25T04:34:59;8.50;99.90
14471;DHT22;7321;50.802;4.336;2024-01-25T04:37:25;8.70;99.90
14471;DHT22;7321;50.802;4.336;2024-01-25T04:39:51;8.70;99.90
14471;DHT22;7321;50.802;4.336;2024-01-25T04:42:17;8.70;99.90
14471;DHT22;7321;50.802;4.336;2024-01-25T04:44:43;8.70;99.90
14471;DHT22;7321;50.802;4.336;2024-01-25T04:47:09;8.70;99.90
14471;DHT22;7321;50.802;4.336;2024-01-25T04:49:36;8.60;99.90
14471;DHT22;7321;50.802;4.336;2024-01-25T04:52:01;8.50;99.90
14471;DHT22;7321;50.802;4.336;2024-01-25T04:54:27;8.70;99.90
14471;DHT22;7321;50.802;4.336;2024-01-25T04:56:53;8.70;99.90
14471;DHT22;7321;50.802;4.336;2024-01-25T04:59:20;8.60;99.90
14471;DHT22;7321;50.802;4.336;2024-01-25T05:01:45;8.60;99.90
14471;DHT22;7321;50.802;4.336;2024-01-25T05:04:11;8.60;99.90
14471;DHT22;7321;50.802;4.336;2024-01-25T05:06:37;8.50;99.90
14471;DHT22;7321;50.802;4.336;2024-01-25T05:09:03;8.50;99.90
14471;DHT22;7321;50.802;4.336;2024-01-25T05:11:29;8.50;99.90
14471;DHT22;7321;50.802;4.336;2024-01-25T05:13:54;8.50;99.90
14471;DHT22;7321;50.802;4.336;2024-01-25T05:16:20;8.50;99.90
14471;DHT22;7321;50.802;4.336;2024-01-25T05:18:46;8.50;99.90
14471;DHT22;7321;50.802;4.336;2024-01-25T05:21:12;8.60;99.90
14471;DHT22;7321;50.802;4.336;2024-01-25T05:23:38;8.60;99.90
14471;DHT22;7321;50.802;4.336;2024-01-25T05:26:03;8.60;99.90
14471;DHT22;7321;50.802;4.336;2024-01-25T05:28:29;8.60;99.90
14471;DHT22;7321;50.802;4.336;2024-01-25T05:30:55;8.60;99.90
14471;DHT22;7321;50.802;4.336;2024-01-25T05:33:21;8.70;99.90
14471;DHT22;7321;50.802;4.336;2024-01-25T05:35:46;8.60;99.90
14471;DHT22;7321;50.802;4.336;2024-01-25T05:38:12;8.60;99.90
14471;DHT22;7321;50.802;4.336;2024-01-25T05:40:38;8.50;99.90
14471;DHT22;7321;50.802;4.336;2024-01-25T05:43:04;8.60;99.90
14471;DHT22;7321;50.802;4.336;2024-01-25T05:45:30;8.60;99.90
14471;DHT22;7321;50.802;4.336;2024-01-25T05:47:56;8.70;99.90
14471;DHT22;7321;50.802;4.336;2024-01-25T05:50:22;8.60;99.90
14471;DHT22;7321;50.802;4.336;2024-01-25T05:52:47;8.60;99.90
14471;DHT22;7321;50.802;4.336;2024-01-25T05:55:13;8.60;99.90
14471;DHT22;7321;50.802;4.336;2024-01-25T05:57:42;8.60;99.90
14471;DHT22;7321;50.802;4.336;2024-01-25T06:00:09;8.60;99.90
14471;DHT22;7321;50.802;4.336;2024-01-25T06:02:37;8.70;99.90
14471;DHT22;7321;50.802;4.336;2024-01-25T06:05:03;8.70;99.90
14471;DHT22;7321;50.802;4.336;2024-01-25T06:07:28;8.70;99.90
14471;DHT22;7321;50.802;4.336;2024-01-25T06:09:54;8.60;99.90
14471;DHT22;7321;50.802;4.336;2024-01-25T06:12:20;8.60;99.90
14471;DHT22;7321;50.802;4.336;2024-01-25T06:14:46;8.60;99.90
14471;DHT22;7321;50.802;4.336;2024-01-25T06:17:12;8.50;99.90
14471;DHT22;7321;50.802;4.336;2024-01-25T06:19:38;8.60;99.90
14471;DHT22;7321;50.802;4.336;2024-01-25T06:22:03;8.50;99.90
14471;DHT22;7321;50.802;4.336;2024-01-25T06:24:29;8.40;99.90
14471;DHT22;7321;50.802;4.336;2024-01-25T06:26:55;8.40;99.90
14471;DHT22;7321;50.802;4.336;2024-01-25T06:29:21;8.40;99.90
14471;DHT22;7321;50.802;4.336;2024-01-25T06:31:47;8.40;99.90
14471;DHT22;7321;50.802;4.336;2024-01-25T06:34:13;8.50;99.90
14471;DHT22;7321;50.802;4.336;2024-01-25T06:36:39;8.50;99.90
14471;DHT22;7321;50.802;4.336;2024-01-25T06:39:06;8.60;99.90
14471;DHT22;7321;50.802;4.336;2024-01-25T06:41:32;8.70;99.90
14471;DHT22;7321;50.802;4.336;2024-01-25T06:43:58;8.70;99.90
14471;DHT22;7321;50.802;4.336;2024-01-25T06:46:25;8.70;99.90
14471;DHT22;7321;50.802;4.336;2024-01-25T06:48:51;8.80;99.90
14471;DHT22;7321;50.802;4.336;2024-01-25T06:51:17;8.90;99.90
14471;DHT22;7321;50.802;4.336;2024-01-25T06:53:43;8.90;99.90
14471;DHT22;7321;50.802;4.336;2024-01-25T06:56:09;9.00;99.90
14471;DHT22;7321;50.802;4.336;2024-01-25T06:58:35;9.00;99.90
14471;DHT22;7321;50.802;4.336;2024-01-25T07:01:04;8.90;99.90
14471;DHT22;7321;50.802;4.336;2024-01-25T07:03:30;8.90;99.90
14471;DHT22;7321;50.802;4.336;2024-01-25T07:05:56;8.90;99.90
14471;DHT22;7321;50.802;4.336;2024-01-25T07:08:22;9.10;99.90
14471;DHT22;7321;50.802;4.336;2024-01-25T07:10:49;9.10;99.90
14471;DHT22;7321;50.802;4.336;2024-01-25T07:13:18;9.00;99.90
14471;DHT22;7321;50.802;4.336;2024-01-25T07:15:44;8.80;99.90
14471;DHT22;7321;50.802;4.336;2024-01-25T07:18:10;8.60;99.90
14471;DHT22;7321;50.802;4.336;2024-01-25T07:20:36;8.70;99.90
14471;DHT22;7321;50.802;4.336;2024-01-25T07:23:02;8.80;99.90
14471;DHT22;7321;50.802;4.336;2024-01-25T07:25:28;8.70;99.90
14471;DHT22;7321;50.802;4.336;2024-01-25T07:27:57;8.70;99.90
14471;DHT22;7321;50.802;4.336;2024-01-25T07:30:23;8.70;99.90
14471;DHT22;7321;50.802;4.336;2024-01-25T07:32:49;8.60;99.90
14471;DHT22;7321;50.802;4.336;2024-01-25T07:35:15;8.50;99.90
14471;DHT22;7321;50.802;4.336;2024-01-25T07:37:44;8.40;99.90
14471;DHT22;7321;50.802;4.336;2024-01-25T07:40:11;8.60;99.90
14471;DHT22;7321;50.802;4.336;2024-01-25T07:42:37;8.60;99.90
14471;DHT22;7321;50.802;4.336;2024-01-25T07:45:03;8.70;99.90
14471;DHT22;7321;50.802;4.336;2024-01-25T07:47:36;8.70;99.90
14471;DHT22;7321;50.802;4.336;2024-01-25T07:50:02;8.70;99.90
14471;DHT22;7321;50.802;4.336;2024-01-25T07:52:28;8.70;99.90
14471;DHT22;7321;50.802;4.336;2024-01-25T07:54:54;8.60;99.90
14471;DHT22;7321;50.802;4.336;2024-01-25T07:57:20;8.70;99.90
14471;DHT22;7321;50.802;4.336;2024-01-25T07:59:46;8.70;99.90
14471;DHT22;7321;50.802;4.336;2024-01-25T08:02:12;8.80;99.90
14471;DHT22;7321;50.802;4.336;2024-01-25T08:04:38;8.80;99.90
14471;DHT22;7321;50.802;4.336;2024-01-25T08:07:04;8.90;99.90
14471;DHT22;7321;50.802;4.336;2024-01-25T08:09:30;9.10;99.90
14471;DHT22;7321;50.802;4.336;2024-01-25T08:11:55;9.00;99.90
14471;DHT22;7321;50.802;4.336;2024-01-25T08:14:21;8.80;99.90
14471;DHT22;7321;50.802;4.336;2024-01-25T08:16:47;8.90;99.90
14471;DHT22;7321;50.802;4.336;2024-01-25T08:19:13;8.90;99.90
14471;DHT22;7321;50.802;4.336;2024-01-25T08:21:39;9.00;99.90
14471;DHT22;7321;50.802;4.336;2024-01-25T08:24:05;8.80;99.90
14471;DHT22;7321;50.802;4.336;2024-01-25T08:26:31;8.70;99.90
14471;DHT22;7321;50.802;4.336;2024-01-25T08:28:56;8.50;99.90
14471;DHT22;7321;50.802;4.336;2024-01-25T08:31:22;8.50;99.90
14471;DHT22;7321;50.802;4.336;2024-01-25T08:33:48;8.60;99.90
14471;DHT22;7321;50.802;4.336;2024-01-25T08:36:18;8.70;99.90
14471;DHT22;7321;50.802;4.336;2024-01-25T08:38:44;8.70;99.90
14471;DHT22;7321;50.802;4.336;2024-01-25T08:41:10;8.80;99.90
14471;DHT22;7321;50.802;4.336;2024-01-25T08:43:37;8.90;99.90
14471;DHT22;7321;50.802;4.336;2024-01-25T08:46:03;9.10;99.90
14471;DHT22;7321;50.802;4.336;2024-01-25T08:48:28;8.90;99.90
14471;DHT22;7321;50.802;4.336;2024-01-25T08:50:54;9.00;99.90
14471;DHT22;7321;50.802;4.336;2024-01-25T08:53:20;8.90;99.90
14471;DHT22;7321;50.802;4.336;2024-01-25T08:55:48;8.80;99.90
14471;DHT22;7321;50.802;4.336;2024-01-25T08:58:14;8.80;99.90
14471;DHT22;7321;50.802;4.336;2024-01-25T09:00:40;8.90;99.90
14471;DHT22;7321;50.802;4.336;2024-01-25T09:03:06;8.90;99.90
14471;DHT22;7321;50.802;4.336;2024-01-25T09:05:32;8.90;99.90
14471;DHT22;7321;50.802;4.336;2024-01-25T09:08:00;9.20;99.90
14471;DHT22;7321;50.802;4.336;2024-01-25T09:10:26;9.40;99.90
14471;DHT22;7321;50.802;4.336;2024-01-25T09:12:51;9.40;99.90
14471;DHT22;7321;50.802;4.336;2024-01-25T09:15:17;9.50;99.90
14471;DHT22;7321;50.802;4.336;2024-01-25T09:17:43;9.50;99.90
14471;DHT22;7321;50.802;4.336;2024-01-25T09:20:10;9.30;99.90
14471;DHT22;7321;50.802;4.336;2024-01-25T09:22:36;9.30;99.90
14471;DHT22;7321;50.802;4.336;2024-01-25T09:25:03;9.60;99.90
14471;DHT22;7321;50.802;4.336;2024-01-25T09:27:29;9.60;99.90
14471;DHT22;7321;50.802;4.336;2024-01-25T09:29:55;9.80;99.90
14471;DHT22;7321;50.802;4.336;2024-01-25T09:32:21;9.80;99.90
14471;DHT22;7321;50.802;4.336;2024-01-25T09:34:47;9.90;99.90
14471;DHT22;7321;50.802;4.336;2024-01-25T09:37:13;10.10;99.90
14471;DHT22;7321;50.802;4.336;2024-01-25T09:39:40;10.20;99.90
14471;DHT22;7321;50.802;4.336;2024-01-25T09:42:07;10.20;99.90
14471;DHT22;7321;50.802;4.336;2024-01-25T09:44:33;10.20;99.90
14471;DHT22;7321;50.802;4.336;2024-01-25T09:47:02;10.30;99.90
14471;DHT22;7321;50.802;4.336;2024-01-25T09:49:28;10.20;99.90
14471;DHT22;7321;50.802;4.336;2024-01-25T09:51:55;10.10;99.90
14471;DHT22;7321;50.802;4.336;2024-01-25T09:54:21;10.00;99.90
14471;DHT22;7321;50.802;4.336;2024-01-25T09:56:50;10.00;99.90
14471;DHT22;7321;50.802;4.336;2024-01-25T09:59:16;10.00;99.90
14471;DHT22;7321;50.802;4.336;2024-01-25T10:01:43;9.90;99.90
14471;DHT22;7321;50.802;4.336;2024-01-25T10:04:09;9.80;99.90
14471;DHT22;7321;50.802;4.336;2024-01-25T10:06:35;10.00;99.90
14471;DHT22;7321;50.802;4.336;2024-01-25T10:09:01;9.90;99.90
14471;DHT22;7321;50.802;4.336;2024-01-25T10:11:28;9.90;99.90
14471;DHT22;7321;50.802;4.336;2024-01-25T10:14:01;10.10;99.90
14471;DHT22;7321;50.802;4.336;2024-01-25T10:16:27;10.30;99.90
14471;DHT22;7321;50.802;4.336;2024-01-25T10:18:53;10.30;99.90
14471;DHT22;7321;50.802;4.336;2024-01-25T10:21:19;10.20;99.90
14471;DHT22;7321;50.802;4.336;2024-01-25T10:23:45;10.20;99.90
14471;DHT22;7321;50.802;4.336;2024-01-25T10:26:12;9.90;99.90
14471;DHT22;7321;50.802;4.336;2024-01-25T10:28:38;10.00;99.90
14471;DHT22;7321;50.802;4.336;2024-01-25T10:31:04;10.10;99.90
14471;DHT22;7321;50.802;4.336;2024-01-25T10:33:31;10.40;99.90
14471;DHT22;7321;50.802;4.336;2024-01-25T10:35:58;10.50;99.90
14471;DHT22;7321;50.802;4.336;2024-01-25T10:38:36;10.40;99.90
14471;DHT22;7321;50.802;4.336;2024-01-25T10:41:04;10.40;99.90
14471;DHT22;7321;50.802;4.336;2024-01-25T10:43:32;10.50;99.90
14471;DHT22;7321;50.802;4.336;2024-01-25T10:45:59;10.40;99.90
14471;DHT22;7321;50.802;4.336;2024-01-25T10:48:26;10.50;99.90
14471;DHT22;7321;50.802;4.336;2024-01-25T10:50:58;10.60;99.90
14471;DHT22;7321;50.802;4.336;2024-01-25T10:53:30;10.60;99.90
14471;DHT22;7321;50.802;4.336;2024-01-25T10:55:58;10.50;99.90
14471;DHT22;7321;50.802;4.336;2024-01-25T10:58:24;10.50;99.90
14471;DHT22;7321;50.802;4.336;2024-01-25T11:00:56;10.50;99.90
14471;DHT22;7321;50.802;4.336;2024-01-25T11:03:27;10.60;99.90
14471;DHT22;7321;50.802;4.336;2024-01-25T11:05:55;10.80;99.90
14471;DHT22;7321;50.802;4.336;2024-01-25T11:08:21;10.70;99.90
14471;DHT22;7321;50.802;4.336;2024-01-25T11:10:50;10.80;99.90
14471;DHT22;7321;50.802;4.336;2024-01-25T11:13:24;11.00;99.90
14471;DHT22;7321;50.802;4.336;2024-01-25T11:15:59;11.20;99.90
14471;DHT22;7321;50.802;4.336;2024-01-25T11:18:25;11.10;99.90
14471;DHT22;7321;50.802;4.336;2024-01-25T11:20:51;11.30;99.90
14471;DHT22;7321;50.802;4.336;2024-01-25T11:23:17;11.40;99.90
14471;DHT22;7321;50.802;4.336;2024-01-25T11:25:47;11.40;99.90
14471;DHT22;7321;50.802;4.336;2024-01-25T11:28:14;11.40;99.90
14471;DHT22;7321;50.802;4.336;2024-01-25T11:30:45;11.50;99.90
14471;DHT22;7321;50.802;4.336;2024-01-25T11:33:11;11.50;99.90
14471;DHT22;7321;50.802;4.336;2024-01-25T11:35:37;11.70;99.90
14471;DHT22;7321;50.802;4.336;2024-01-25T11:38:15;11.70;99.90
14471;DHT22;7321;50.802;4.336;2024-01-25T11:40:41;11.80;99.90
14471;DHT22;7321;50.802;4.336;2024-01-25T11:43:07;11.80;99.90
14471;DHT22;7321;50.802;4.336;2024-01-25T11:45:36;12.00;99.90
14471;DHT22;7321;50.802;4.336;2024-01-25T11:48:07;12.00;99.90
14471;DHT22;7321;50.802;4.336;2024-01-25T11:50:33;11.80;99.90
14471;DHT22;7321;50.802;4.336;2024-01-25T11:52:59;11.70;99.90
14471;DHT22;7321;50.802;4.336;2024-01-25T11:55:25;11.90;99.90
14471;DHT22;7321;50.802;4.336;2024-01-25T11:57:51;11.70;99.90
14471;DHT22;7321;50.802;4.336;2024-01-25T12:00:18;11.50;99.90
14471;DHT22;7321;50.802;4.336;2024-01-25T12:02:44;11.60;99.90
14471;DHT22;7321;50.802;4.336;2024-01-25T12:05:10;11.70;99.90
14471;DHT22;7321;50.802;4.336;2024-01-25T12:07:39;11.60;99.90
14471;DHT22;7321;50.802;4.336;2024-01-25T12:10:07;11.40;99.90
14471;DHT22;7321;50.802;4.336;2024-01-25T12:12:35;11.30;99.90
14471;DHT22;7321;50.802;4.336;2024-01-25T12:15:04;11.50;99.90
14471;DHT22;7321;50.802;4.336;2024-01-25T12:17:30;11.40;99.90
14471;DHT22;7321;50.802;4.336;2024-01-25T12:19:57;11.40;99.90
14471;DHT22;7321;50.802;4.336;2024-01-25T12:22:24;11.40;99.90
14471;DHT22;7321;50.802;4.336;2024-01-25T12:24:54;11.50;99.90
14471;DHT22;7321;50.802;4.336;2024-01-25T12:27:21;11.30;99.90
14471;DHT22;7321;50.802;4.336;2024-01-25T12:29:48;11.30;99.90
14471;DHT22;7321;50.802;4.336;2024-01-25T12:32:14;11.50;99.90
14471;DHT22;7321;50.802;4.336;2024-01-25T12:34:40;11.50;99.90
14471;DHT22;7321;50.802;4.336;2024-01-25T12:37:07;11.60;99.90
14471;DHT22;7321;50.802;4.336;2024-01-25T12:39:33;11.60;99.90
14471;DHT22;7321;50.802;4.336;2024-01-25T12:41:59;11.60;99.90
14471;DHT22;7321;50.802;4.336;2024-01-25T12:44:25;11.60;99.90
14471;DHT22;7321;50.802;4.336;2024-01-25T12:46:51;11.70;99.90
14471;DHT22;7321;50.802;4.336;2024-01-25T12:49:17;11.70;99.90
14471;DHT22;7321;50.802;4.336;2024-01-25T12:51:43;11.60;99.90
14471;DHT22;7321;50.802;4.336;2024-01-25T12:54:09;11.50;99.90
14471;DHT22;7321;50.802;4.336;2024-01-25T12:56:35;11.70;99.90
14471;DHT22;7321;50.802;4.336;2024-01-25T12:59:01;11.70;99.90
14471;DHT22;7321;50.802;4.336;2024-01-25T13:01:27;11.80;99.90
14471;DHT22;7321;50.802;4.336;2024-01-25T13:03:53;11.90;99.90
14471;DHT22;7321;50.802;4.336;2024-01-25T13:06:19;11.90;99.90
14471;DHT22;7321;50.802;4.336;2024-01-25T13:08:44;11.80;99.90
14471;DHT22;7321;50.802;4.336;2024-01-25T13:11:11;11.70;99.90
14471;DHT22;7321;50.802;4.336;2024-01-25T13:13:37;11.70;99.90
14471;DHT22;7321;50.802;4.336;2024-01-25T13:16:03;11.80;99.90
14471;DHT22;7321;50.802;4.336;2024-01-25T13:18:29;11.90;99.90
14471;DHT22;7321;50.802;4.336;2024-01-25T13:20:55;11.90;99.90
14471;DHT22;7321;50.802;4.336;2024-01-25T13:23:30;11.80;99.90
14471;DHT22;7321;50.802;4.336;2024-01-25T13:25:56;12.00;99.90
14471;DHT22;7321;50.802;4.336;2024-01-25T13:28:21;12.20;99.90
14471;DHT22;7321;50.802;4.336;2024-01-25T13:30:47;12.30;99.90
14471;DHT22;7321;50.802;4.336;2024-01-25T13:33:13;12.40;99.90
14471;DHT22;7321;50.802;4.336;2024-01-25T13:35:39;12.30;99.90
14471;DHT22;7321;50.802;4.336;2024-01-25T13:38:05;12.20;99.90
14471;DHT22;7321;50.802;4.336;2024-01-25T13:40:30;12.30;99.90
14471;DHT22;7321;50.802;4.336;2024-01-25T13:42:56;12.50;99.90
14471;DHT22;7321;50.802;4.336;2024-01-25T13:45:22;12.50;99.90
14471;DHT22;7321;50.802;4.336;2024-01-25T13:47:48;12.40;99.90
14471;DHT22;7321;50.802;4.336;2024-01-25T13:50:14;12.40;99.90
14471;DHT22;7321;50.802;4.336;2024-01-25T13:52:39;12.20;99.90
14471;DHT22;7321;50.802;4.336;2024-01-25T13:55:06;12.40;99.90
14471;DHT22;7321;50.802;4.336;2024-01-25T13:57:32;12.50;99.90
14471;DHT22;7321;50.802;4.336;2024-01-25T13:59:57;12.50;99.90
14471;DHT22;7321;50.802;4.336;2024-01-25T14:02:23;12.60;99.90
14471;DHT22;7321;50.802;4.336;2024-01-25T14:04:49;12.40;99.90
14471;DHT22;7321;50.802;4.336;2024-01-25T14:07:15;12.30;99.90
14471;DHT22;7321;50.802;4.336;2024-01-25T14:09:42;12.30;99.90
14471;DHT22;7321;50.802;4.336;2024-01-25T14:12:22;12.10;99.90
14471;DHT22;7321;50.802;4.336;2024-01-25T14:14:47;12.10;99.90
14471;DHT22;7321;50.802;4.336;2024-01-25T14:17:13;12.20;99.90
14471;DHT22;7321;50.802;4.336;2024-01-25T14:19:39;12.10;99.90
14471;DHT22;7321;50.802;4.336;2024-01-25T14:22:05;12.00;99.90
14471;DHT22;7321;50.802;4.336;2024-01-25T14:24:31;11.80;99.90
14471;DHT22;7321;50.802;4.336;2024-01-25T14:26:56;11.80;99.90
14471;DHT22;7321;50.802;4.336;2024-01-25T14:29:22;12.00;99.90
14471;DHT22;7321;50.802;4.336;2024-01-25T14:31:49;12.10;99.90
14471;DHT22;7321;50.802;4.336;2024-01-25T14:34:14;11.90;99.90
14471;DHT22;7321;50.802;4.336;2024-01-25T14:36:40;11.90;99.90
14471;DHT22;7321;50.802;4.336;2024-01-25T14:39:06;12.00;99.90
14471;DHT22;7321;50.802;4.336;2024-01-25T14:41:34;12.00;99.90
14471;DHT22;7321;50.802;4.336;2024-01-25T14:44:00;11.50;99.90
14471;DHT22;7321;50.802;4.336;2024-01-25T14:46:26;11.50;99.90
14471;DHT22;7321;50.802;4.336;2024-01-25T14:48:52;11.60;99.90
14471;DHT22;7321;50.802;4.336;2024-01-25T14:51:18;11.70;99.90
14471;DHT22;7321;50.802;4.336;2024-01-25T14:53:45;11.70;99.90
14471;DHT22;7321;50.802;4.336;2024-01-25T14:56:11;11.70;99.90
14471;DHT22;7321;50.802;4.336;2024-01-25T14:58:38;11.70;99.90
14471;DHT22;7321;50.802;4.336;2024-01-25T15:01:04;11.70;99.90
14471;DHT22;7321;50.802;4.336;2024-01-25T15:03:29;11.80;99.90
14471;DHT22;7321;50.802;4.336;2024-01-25T15:05:55;11.90;99.90
14471;DHT22;7321;50.802;4.336;2024-01-25T15:08:22;11.90;99.90
14471;DHT22;7321;50.802;4.336;2024-01-25T15:10:48;11.80;99.90
14471;DHT22;7321;50.802;4.336;2024-01-25T15:13:13;11.70;99.90
14471;DHT22;7321;50.802;4.336;2024-01-25T15:15:40;11.70;99.90
14471;DHT22;7321;50.802;4.336;2024-01-25T15:18:08;11.60;99.90
14471;DHT22;7321;50.802;4.336;2024-01-25T15:20:33;11.80;99.90
14471;DHT22;7321;50.802;4.336;2024-01-25T15:23:01;11.90;99.90
14471;DHT22;7321;50.802;4.336;2024-01-25T15:25:27;11.80;99.90
14471;DHT22;7321;50.802;4.336;2024-01-25T15:27:56;11.90;99.90
14471;DHT22;7321;50.802;4.336;2024-01-25T15:30:21;11.80;99.90
14471;DHT22;7321;50.802;4.336;2024-01-25T15:32:47;11.80;99.90
14471;DHT22;7321;50.802;4.336;2024-01-25T15:35:13;11.80;99.90
14471;DHT22;7321;50.802;4.336;2024-01-25T15:37:39;12.00;99.90
14471;DHT22;7321;50.802;4.336;2024-01-25T15:40:07;11.90;99.90
14471;DHT22;7321;50.802;4.336;2024-01-25T15:42:37;11.70;99.90
14471;DHT22;7321;50.802;4.336;2024-01-25T15:45:03;11.80;99.90
14471;DHT22;7321;50.802;4.336;2024-01-25T15:47:29;11.70;99.90
14471;DHT22;7321;50.802;4.336;2024-01-25T15:49:55;11.90;99.90
14471;DHT22;7321;50.802;4.336;2024-01-25T15:52:21;12.10;99.90